createdAt,value
2023-05-14T00:00:33.282Z,10.84
2023-05-14T00:01:36.060Z,10.78
2023-05-14T00:02:37.861Z,10.72
2023-05-14T00:03:42.075Z,10.64
2023-05-14T00:04:43.822Z,10.60
2023-05-14T00:05:46.477Z,10.54
2023-05-14T00:06:48.185Z,10.49
2023-05-14T00:07:50.952Z,10.44
2023-05-14T00:08:52.648Z,10.42
2023-05-14T00:09:55.358Z,10.39
2023-05-14T00:10:57.070Z,10.39
2023-05-14T00:12:00.004Z,10.37
2023-05-14T00:13:01.838Z,10.37
2023-05-14T00:14:04.554Z,10.37
2023-05-14T00:15:07.454Z,10.38
2023-05-14T00:16:10.370Z,10.37
2023-05-14T00:17:12.103Z,10.39
2023-05-14T00:18:14.804Z,10.39
2023-05-14T00:19:18.042Z,10.40
2023-05-14T00:20:21.127Z,10.39
2023-05-14T00:21:22.978Z,10.39
2023-05-14T00:22:25.687Z,10.38
2023-05-14T00:23:27.479Z,10.40
2023-05-14T00:24:30.172Z,10.39
2023-05-14T00:25:32.017Z,10.40
2023-05-14T00:26:34.750Z,10.42
2023-05-14T00:27:37.769Z,10.42
2023-05-14T00:28:40.553Z,10.44
2023-05-14T00:29:42.250Z,10.46
2023-05-14T00:30:45.473Z,10.47
2023-05-14T00:31:47.285Z,10.48
2023-05-14T00:32:50.068Z,10.47
2023-05-14T00:33:51.794Z,10.48
2023-05-14T00:34:55.874Z,10.47
2023-05-14T00:35:57.630Z,10.49
2023-05-14T00:37:00.303Z,10.47
2023-05-14T00:38:02.388Z,10.50
2023-05-14T00:39:05.349Z,10.50
2023-05-14T00:40:08.673Z,10.51
2023-05-14T00:41:11.430Z,10.51
2023-05-14T00:42:13.187Z,10.54
2023-05-14T00:43:15.845Z,10.54
2023-05-14T00:44:17.566Z,10.56
2023-05-14T00:45:20.650Z,10.57
2023-05-14T00:46:22.710Z,10.57
2023-05-14T00:47:25.802Z,10.57
2023-05-14T00:48:27.913Z,10.58
2023-05-14T00:49:30.749Z,10.57
2023-05-14T00:50:34.646Z,10.58
2023-05-14T00:51:37.987Z,10.58
2023-05-14T00:52:40.725Z,10.59
2023-05-14T00:53:43.628Z,10.59
2023-05-14T00:54:47.170Z,10.61
2023-05-14T00:55:51.044Z,10.61
2023-05-14T00:56:53.152Z,10.60
2023-05-14T00:57:57.409Z,10.61
2023-05-14T00:58:59.158Z,10.62
2023-05-14T01:00:02.357Z,10.64
2023-05-14T01:01:04.328Z,10.64
2023-05-14T01:02:07.381Z,10.65
2023-05-14T01:03:09.568Z,10.64
2023-05-14T01:04:12.831Z,10.64
2023-05-14T01:05:14.684Z,10.64
2023-05-14T01:06:22.905Z,10.64
2023-05-14T01:07:29.458Z,10.64
2023-05-14T01:08:37.872Z,10.64
2023-05-14T01:09:43.419Z,10.63
2023-05-14T01:10:51.682Z,10.62
2023-05-14T01:11:59.854Z,10.59
2023-05-14T01:13:05.795Z,10.53
2023-05-14T01:14:17.230Z,10.47
2023-05-14T01:15:22.759Z,10.42
2023-05-14T01:16:27.205Z,10.38
2023-05-14T01:17:30.995Z,10.33
2023-05-14T01:18:32.833Z,10.29
2023-05-14T01:19:38.970Z,10.26
2023-05-14T01:20:40.796Z,10.26
2023-05-14T01:21:45.624Z,10.24
2023-05-14T01:22:47.332Z,10.24
2023-05-14T01:23:50.026Z,10.22
2023-05-14T01:24:51.744Z,10.22
2023-05-14T01:25:54.485Z,10.21
2023-05-14T01:27:02.032Z,10.21
2023-05-14T01:28:10.659Z,10.20
2023-05-14T01:29:17.136Z,10.20
2023-05-14T01:30:23.344Z,10.20
2023-05-14T01:31:28.010Z,10.19
2023-05-14T01:32:31.649Z,10.19
2023-05-14T01:33:34.173Z,10.19
2023-05-14T01:34:37.674Z,10.18
2023-05-14T01:35:39.795Z,10.16
2023-05-14T01:36:43.341Z,10.15
2023-05-14T01:37:47.689Z,10.14
2023-05-14T01:38:51.167Z,10.14
2023-05-14T01:39:53.438Z,10.12
2023-05-14T01:40:56.618Z,10.09
2023-05-14T01:41:59.158Z,10.09
2023-05-14T01:43:02.048Z,10.09
2023-05-14T01:44:04.020Z,10.08
2023-05-14T01:45:07.354Z,10.08
2023-05-14T01:46:09.121Z,10.09
2023-05-14T01:47:11.822Z,10.10
2023-05-14T01:48:13.567Z,10.11
2023-05-14T01:49:18.106Z,10.11
2023-05-14T01:50:20.022Z,10.11
2023-05-14T01:51:22.873Z,10.11
2023-05-14T01:52:24.690Z,10.10
2023-05-14T01:53:28.800Z,10.09
2023-05-14T01:54:30.629Z,10.08
2023-05-14T01:55:33.265Z,10.07
2023-05-14T01:56:35.004Z,10.06
2023-05-14T01:57:37.757Z,10.04
2023-05-14T01:58:39.502Z,10.03
2023-05-14T01:59:42.179Z,10.03
2023-05-14T02:00:43.922Z,10.03
2023-05-14T02:01:46.647Z,10.04
2023-05-14T02:02:48.436Z,10.03
2023-05-14T02:03:53.946Z,10.03
2023-05-14T02:04:55.731Z,10.03
2023-05-14T02:05:58.374Z,10.03
2023-05-14T02:07:00.047Z,10.03
2023-05-14T02:08:02.821Z,10.03
2023-05-14T02:09:05.928Z,10.03
2023-05-14T02:10:09.927Z,10.03
2023-05-14T02:11:11.652Z,10.03
2023-05-14T02:12:14.318Z,10.04
2023-05-14T02:13:16.676Z,10.03
2023-05-14T02:14:19.376Z,10.04
2023-05-14T02:15:21.319Z,10.04
2023-05-14T02:16:24.082Z,10.05
2023-05-14T02:17:26.461Z,10.06
2023-05-14T02:18:29.167Z,10.07
2023-05-14T02:19:30.864Z,10.07
2023-05-14T02:20:33.491Z,10.07
2023-05-14T02:21:35.449Z,10.07
2023-05-14T02:22:38.707Z,10.08
2023-05-14T02:23:42.058Z,10.08
2023-05-14T02:24:46.334Z,10.09
2023-05-14T02:25:48.056Z,10.10
2023-05-14T02:26:50.708Z,10.10
2023-05-14T02:27:52.423Z,10.12
2023-05-14T02:28:55.054Z,10.13
2023-05-14T02:30:00.659Z,10.13
2023-05-14T02:31:03.586Z,10.14
2023-05-14T02:32:05.955Z,10.13
2023-05-14T02:33:08.800Z,10.14
2023-05-14T02:34:10.574Z,10.15
2023-05-14T02:35:13.265Z,10.15
2023-05-14T02:36:15.607Z,10.17
2023-05-14T02:37:18.305Z,10.20
2023-05-14T02:38:20.356Z,10.21
2023-05-14T02:39:23.021Z,10.22
2023-05-14T02:40:26.322Z,10.22
2023-05-14T02:41:29.142Z,10.23
2023-05-14T02:42:31.137Z,10.24
2023-05-14T02:43:33.796Z,10.25
2023-05-14T02:44:35.607Z,10.24
2023-05-14T02:45:38.262Z,10.24
2023-05-14T02:46:40.275Z,10.24
2023-05-14T02:47:43.639Z,10.25
2023-05-14T02:48:45.453Z,10.23
2023-05-14T02:49:48.268Z,10.24
2023-05-14T02:50:51.105Z,10.24
2023-05-14T02:51:54.877Z,10.24
2023-05-14T02:52:56.569Z,10.25
2023-05-14T02:53:59.315Z,10.26
2023-05-14T02:55:00.995Z,10.25
2023-05-14T02:56:05.575Z,10.25
2023-05-14T02:57:07.312Z,10.25
2023-05-14T02:58:10.476Z,10.25
2023-05-14T02:59:12.201Z,10.24
2023-05-14T03:00:15.942Z,10.24
2023-05-14T03:01:18.835Z,10.23
2023-05-14T03:02:22.135Z,10.22
2023-05-14T03:03:24.177Z,10.22
2023-05-14T03:04:27.273Z,10.20
2023-05-14T03:05:29.019Z,10.19
2023-05-14T03:06:31.999Z,10.18
2023-05-14T03:07:33.786Z,10.16
2023-05-14T03:08:36.535Z,10.16
2023-05-14T03:09:38.507Z,10.14
2023-05-14T03:10:41.234Z,10.13
2023-05-14T03:11:44.278Z,10.11
2023-05-14T03:12:47.353Z,10.10
2023-05-14T03:13:49.066Z,10.09
2023-05-14T03:14:51.714Z,10.07
2023-05-14T03:15:55.090Z,10.04
2023-05-14T03:16:57.876Z,10.02
2023-05-14T03:17:59.626Z,9.99
2023-05-14T03:19:02.305Z,9.98
2023-05-14T03:20:04.820Z,9.96
2023-05-14T03:21:09.045Z,9.94
2023-05-14T03:22:10.785Z,9.91
2023-05-14T03:23:14.809Z,9.89
2023-05-14T03:24:16.538Z,9.87
2023-05-14T03:25:19.293Z,9.86
2023-05-14T03:26:21.674Z,9.83
2023-05-14T03:27:25.730Z,9.81
2023-05-14T03:28:27.454Z,9.79
2023-05-14T03:29:30.498Z,9.79
2023-05-14T03:30:32.219Z,9.77
2023-05-14T03:31:35.030Z,9.77
2023-05-14T03:32:37.457Z,9.77
2023-05-14T03:33:40.848Z,9.76
2023-05-14T03:34:42.755Z,9.76
2023-05-14T03:35:45.430Z,9.74
2023-05-14T03:36:48.118Z,9.73
2023-05-14T03:37:49.862Z,9.71
2023-05-14T03:38:52.561Z,9.72
2023-05-14T03:39:54.368Z,9.72
2023-05-14T03:40:57.638Z,9.71
2023-05-14T03:41:59.372Z,9.70
2023-05-14T03:43:03.528Z,9.72
2023-05-14T03:44:06.324Z,9.71
2023-05-14T03:45:10.445Z,9.70
2023-05-14T03:46:12.152Z,9.70
2023-05-14T03:47:14.853Z,9.71
2023-05-14T03:48:16.651Z,9.71
2023-05-14T03:49:19.390Z,9.70
2023-05-14T03:50:21.174Z,9.71
2023-05-14T03:51:24.032Z,9.72
2023-05-14T03:52:25.754Z,9.72
2023-05-14T03:53:28.490Z,9.73
2023-05-14T03:54:30.206Z,9.73
2023-05-14T03:55:32.889Z,9.74
2023-05-14T03:56:34.659Z,9.76
2023-05-14T03:57:37.719Z,9.74
2023-05-14T03:58:40.794Z,9.74
2023-05-14T03:59:43.437Z,9.74
2023-05-14T04:00:45.164Z,9.74
2023-05-14T04:01:47.832Z,9.73
2023-05-14T04:02:49.580Z,9.74
2023-05-14T04:03:52.595Z,9.75
2023-05-14T04:04:54.607Z,9.76
2023-05-14T04:05:57.324Z,9.76
2023-05-14T04:06:58.970Z,9.77
2023-05-14T04:08:01.727Z,9.78
2023-05-14T04:09:03.653Z,9.78
2023-05-14T04:10:07.480Z,9.80
2023-05-14T04:11:09.240Z,9.80
2023-05-14T04:12:11.909Z,9.81
2023-05-14T04:13:13.646Z,9.82
2023-05-14T04:14:17.654Z,9.83
2023-05-14T04:15:19.399Z,9.84
2023-05-14T04:16:22.137Z,9.84
2023-05-14T04:17:24.024Z,9.85
2023-05-14T04:18:26.750Z,9.86
2023-05-14T04:19:28.503Z,9.86
2023-05-14T04:20:31.170Z,9.86
2023-05-14T04:21:32.941Z,9.86
2023-05-14T04:22:35.653Z,9.88
2023-05-14T04:23:37.414Z,9.89
2023-05-14T04:24:40.128Z,9.91
2023-05-14T04:25:42.098Z,9.91
2023-05-14T04:26:44.818Z,9.92
2023-05-14T04:27:46.509Z,9.94
2023-05-14T04:28:49.270Z,9.95
2023-05-14T04:29:52.393Z,9.96
2023-05-14T04:30:55.431Z,9.98
2023-05-14T04:31:57.183Z,9.99
2023-05-14T04:32:59.949Z,10.01
2023-05-14T04:34:01.693Z,10.02
2023-05-14T04:35:05.176Z,10.03
2023-05-14T04:36:07.410Z,10.02
2023-05-14T04:37:10.249Z,10.02
2023-05-14T04:38:14.041Z,10.02
2023-05-14T04:39:16.867Z,10.04
2023-05-14T04:40:19.070Z,10.03
2023-05-14T04:41:22.064Z,10.04
2023-05-14T04:42:23.743Z,10.05
2023-05-14T04:43:26.500Z,10.07
2023-05-14T04:44:28.187Z,10.07
2023-05-14T04:45:34.259Z,10.08
2023-05-14T04:46:36.269Z,10.08
2023-05-14T04:47:38.937Z,10.08
2023-05-14T04:48:40.721Z,10.08
2023-05-14T04:49:43.502Z,10.09
2023-05-14T04:50:45.293Z,10.08
2023-05-14T04:51:48.130Z,10.09
2023-05-14T04:52:49.814Z,10.09
2023-05-14T04:53:52.514Z,10.08
2023-05-14T04:54:54.482Z,10.10
2023-05-14T04:55:57.203Z,10.11
2023-05-14T04:57:03.198Z,10.13
2023-05-14T04:58:06.070Z,10.16
2023-05-14T04:59:07.815Z,10.20
2023-05-14T05:00:11.826Z,10.20
2023-05-14T05:01:16.124Z,10.23
2023-05-14T05:02:17.853Z,10.25
2023-05-14T05:03:20.766Z,10.27
2023-05-14T05:04:23.914Z,10.28
2023-05-14T05:05:26.584Z,10.28
2023-05-14T05:06:28.354Z,10.30
2023-05-14T05:07:31.144Z,10.31
2023-05-14T05:08:32.877Z,10.31
2023-05-14T05:09:35.780Z,10.33
2023-05-14T05:10:37.514Z,10.33
2023-05-14T05:11:40.172Z,10.33
2023-05-14T05:12:41.998Z,10.33
2023-05-14T05:13:44.807Z,10.34
2023-05-14T05:14:46.493Z,10.34
2023-05-14T05:15:49.288Z,10.36
2023-05-14T05:16:52.488Z,10.38
2023-05-14T05:17:55.156Z,10.39
2023-05-14T05:18:57.076Z,10.43
2023-05-14T05:19:59.789Z,10.45
2023-05-14T05:21:01.513Z,10.49
2023-05-14T05:22:04.340Z,10.51
2023-05-14T05:23:06.062Z,10.54
2023-05-14T05:24:08.755Z,10.56
2023-05-14T05:25:12.109Z,10.59
2023-05-14T05:26:14.727Z,10.63
2023-05-14T05:27:16.561Z,10.66
2023-05-14T05:28:19.221Z,10.70
2023-05-14T05:29:20.962Z,10.75
2023-05-14T05:30:23.897Z,10.79
2023-05-14T05:31:25.723Z,10.84
2023-05-14T05:32:29.918Z,10.88
2023-05-14T05:33:31.761Z,10.92
2023-05-14T05:34:34.592Z,10.97
2023-05-14T05:35:36.362Z,11.01
2023-05-14T05:36:39.032Z,11.06
2023-05-14T05:37:42.298Z,11.11
2023-05-14T05:38:45.078Z,11.17
2023-05-14T05:39:48.280Z,11.22
2023-05-14T05:40:51.084Z,11.27
2023-05-14T05:41:53.559Z,11.32
2023-05-14T05:42:56.302Z,11.36
2023-05-14T05:43:58.041Z,11.39
2023-05-14T05:45:00.838Z,11.42
2023-05-14T05:46:02.618Z,11.44
2023-05-14T05:47:05.822Z,11.46
2023-05-14T05:48:08.981Z,11.49
2023-05-14T05:49:11.646Z,11.51
2023-05-14T05:50:13.581Z,11.53
2023-05-14T05:51:16.365Z,11.57
2023-05-14T05:52:18.089Z,11.60
2023-05-14T05:53:20.838Z,11.64
2023-05-14T05:54:23.851Z,11.70
2023-05-14T05:55:26.821Z,11.74
2023-05-14T05:56:28.504Z,11.78
2023-05-14T05:57:31.196Z,11.84
2023-05-14T05:58:33.187Z,11.90
2023-05-14T05:59:36.171Z,11.97
2023-05-14T06:00:37.953Z,12.08
2023-05-14T06:01:43.477Z,12.16
2023-05-14T06:02:46.487Z,12.26
2023-05-14T06:03:50.591Z,12.40
2023-05-14T06:04:53.222Z,12.55
2023-05-14T06:05:55.963Z,12.70
2023-05-14T06:06:57.812Z,12.83
2023-05-14T06:08:00.604Z,12.96
2023-05-14T06:09:02.305Z,13.08
2023-05-14T06:10:06.445Z,13.18
2023-05-14T06:11:08.266Z,13.30
2023-05-14T06:12:11.214Z,13.43
2023-05-14T06:13:12.974Z,13.51
2023-05-14T06:14:15.713Z,13.60
2023-05-14T06:15:17.470Z,13.68
2023-05-14T06:16:20.196Z,13.75
2023-05-14T06:17:22.099Z,13.81
2023-05-14T06:18:24.865Z,13.88
2023-05-14T06:19:28.063Z,13.96
2023-05-14T06:20:30.870Z,14.04
2023-05-14T06:21:33.566Z,14.13
2023-05-14T06:22:35.364Z,14.22
2023-05-14T06:23:38.140Z,14.31
2023-05-14T06:24:39.854Z,14.40
2023-05-14T06:25:42.560Z,14.48
2023-05-14T06:26:44.325Z,14.56
2023-05-14T06:27:47.025Z,14.64
2023-05-14T06:28:48.701Z,14.69
2023-05-14T06:29:51.350Z,14.75
2023-05-14T06:30:54.040Z,14.78
2023-05-14T06:32:01.829Z,14.83
2023-05-14T06:33:03.821Z,14.91
2023-05-14T06:34:06.654Z,14.95
2023-05-14T06:35:10.464Z,15.02
2023-05-14T06:36:13.239Z,15.09
2023-05-14T06:37:14.981Z,15.16
2023-05-14T06:38:17.678Z,15.22
2023-05-14T06:39:19.374Z,15.28
2023-05-14T06:40:22.488Z,15.33
2023-05-14T06:41:24.531Z,15.41
2023-05-14T06:42:27.484Z,15.47
2023-05-14T06:43:29.214Z,15.54
2023-05-14T06:44:32.231Z,15.58
2023-05-14T06:45:33.942Z,15.64
2023-05-14T06:46:36.601Z,15.69
2023-05-14T06:47:38.375Z,15.74
2023-05-14T06:48:41.132Z,15.78
2023-05-14T06:49:42.816Z,15.85
2023-05-14T06:50:47.171Z,15.88
2023-05-14T06:51:48.914Z,15.91
2023-05-14T06:52:51.580Z,15.94
2023-05-14T06:53:54.228Z,15.96
2023-05-14T06:54:56.925Z,16.01
2023-05-14T06:55:58.620Z,16.06
2023-05-14T06:57:01.323Z,16.09
2023-05-14T06:58:04.019Z,16.12
2023-05-14T06:59:06.769Z,16.14
2023-05-14T07:00:09.515Z,16.17
2023-05-14T07:01:12.182Z,16.19
2023-05-14T07:02:13.902Z,16.22
2023-05-14T07:03:16.631Z,16.25
2023-05-14T07:04:18.369Z,16.26
2023-05-14T07:05:21.028Z,16.28
2023-05-14T07:06:24.075Z,16.30
2023-05-14T07:07:26.763Z,16.33
2023-05-14T07:08:28.450Z,16.34
2023-05-14T07:09:31.090Z,16.40
2023-05-14T07:10:33.308Z,16.44
2023-05-14T07:11:35.998Z,16.50
2023-05-14T07:12:37.793Z,16.54
2023-05-14T07:13:40.793Z,16.58
2023-05-14T07:14:42.530Z,16.61
2023-05-14T07:15:45.215Z,16.66
2023-05-14T07:16:47.106Z,16.72
2023-05-14T07:17:50.212Z,16.78
2023-05-14T07:18:52.169Z,16.85
2023-05-14T07:19:56.003Z,16.89
2023-05-14T07:20:57.820Z,16.91
2023-05-14T07:22:02.065Z,16.95
2023-05-14T07:23:03.854Z,16.98
2023-05-14T07:24:07.267Z,17.02
2023-05-14T07:25:09.223Z,17.05
2023-05-14T07:26:11.945Z,17.09
2023-05-14T07:27:13.701Z,17.15
2023-05-14T07:28:16.409Z,17.23
2023-05-14T07:29:18.165Z,17.27
2023-05-14T07:30:20.967Z,17.32
2023-05-14T07:31:22.756Z,17.33
2023-05-14T07:32:25.992Z,17.36
2023-05-14T07:33:27.759Z,17.38
2023-05-14T07:34:30.400Z,17.42
2023-05-14T07:35:32.446Z,17.45
2023-05-14T07:36:35.287Z,17.48
2023-05-14T07:37:38.498Z,17.50
2023-05-14T07:38:41.234Z,17.52
2023-05-14T07:39:42.927Z,17.52
2023-05-14T07:40:45.631Z,17.53
2023-05-14T07:41:47.370Z,17.51
2023-05-14T07:42:50.028Z,17.49
2023-05-14T07:43:51.745Z,17.48
2023-05-14T07:44:54.390Z,17.47
2023-05-14T07:45:56.604Z,17.47
2023-05-14T07:46:59.475Z,17.49
2023-05-14T07:48:01.407Z,17.50
2023-05-14T07:49:04.316Z,17.54
2023-05-14T07:50:07.193Z,17.56
2023-05-14T07:51:09.895Z,17.61
2023-05-14T07:52:11.621Z,17.70
2023-05-14T07:53:15.682Z,17.75
2023-05-14T07:54:17.395Z,17.81
2023-05-14T07:55:20.422Z,17.86
2023-05-14T07:56:22.380Z,17.92
2023-05-14T07:57:25.092Z,17.98
2023-05-14T07:58:27.809Z,18.03
2023-05-14T07:59:31.236Z,18.09
2023-05-14T08:00:32.948Z,18.12
2023-05-14T08:01:37.718Z,18.11
2023-05-14T08:02:40.871Z,18.12
2023-05-14T08:03:43.800Z,18.14
2023-05-14T08:04:45.623Z,18.16
2023-05-14T08:05:48.298Z,18.22
2023-05-14T08:06:49.967Z,18.26
2023-05-14T08:07:52.652Z,18.31
2023-05-14T08:08:55.677Z,18.36
2023-05-14T08:09:58.359Z,18.40
2023-05-14T08:11:00.249Z,18.45
2023-05-14T08:12:03.093Z,18.49
2023-05-14T08:13:04.911Z,18.54
2023-05-14T08:14:07.644Z,18.61
2023-05-14T08:15:10.227Z,18.67
2023-05-14T08:16:12.993Z,18.74
2023-05-14T08:17:14.787Z,18.79
2023-05-14T08:18:17.586Z,18.83
2023-05-14T08:19:19.287Z,18.84
2023-05-14T08:20:22.665Z,18.85
2023-05-14T08:21:24.594Z,18.89
2023-05-14T08:22:27.417Z,18.95
2023-05-14T08:23:29.127Z,18.99
2023-05-14T08:24:33.223Z,19.01
2023-05-14T08:25:35.185Z,19.02
2023-05-14T08:26:38.848Z,19.02
2023-05-14T08:27:40.789Z,19.05
2023-05-14T08:28:44.395Z,19.11
2023-05-14T08:29:47.187Z,19.17
2023-05-14T08:30:49.909Z,19.26
2023-05-14T08:31:51.642Z,19.35
2023-05-14T08:32:54.378Z,19.45
2023-05-14T08:33:56.184Z,19.52
2023-05-14T08:34:59.545Z,19.57
2023-05-14T08:36:01.600Z,19.67
2023-05-14T08:37:04.708Z,19.76
2023-05-14T08:38:06.495Z,19.86
2023-05-14T08:39:09.321Z,19.93
2023-05-14T08:40:12.932Z,20.01
2023-05-14T08:41:16.286Z,20.08
2023-05-14T08:42:20.984Z,20.19
2023-05-14T08:43:27.509Z,20.32
2023-05-14T08:44:33.536Z,20.44
2023-05-14T08:45:36.723Z,20.48
2023-05-14T08:46:39.147Z,20.48
2023-05-14T08:47:41.877Z,20.47
2023-05-14T08:48:47.529Z,20.40
2023-05-14T08:49:54.266Z,20.31
2023-05-14T08:50:56.126Z,20.31
2023-05-14T08:51:59.102Z,20.34
2023-05-14T08:53:00.812Z,20.35
2023-05-14T08:54:04.447Z,20.36
2023-05-14T08:55:07.945Z,20.30
2023-05-14T08:56:12.776Z,20.27
2023-05-14T08:57:15.730Z,20.23
2023-05-14T08:58:17.464Z,20.21
2023-05-14T08:59:20.156Z,20.18
2023-05-14T09:00:23.354Z,20.17
2023-05-14T09:01:26.819Z,20.16
2023-05-14T09:02:29.765Z,20.15
2023-05-14T09:03:32.602Z,20.19
2023-05-14T09:04:35.019Z,20.28
2023-05-14T09:05:38.236Z,20.33
2023-05-14T09:06:40.542Z,20.38
2023-05-14T09:07:43.296Z,20.40
2023-05-14T09:08:45.968Z,20.47
2023-05-14T09:09:48.843Z,20.53
2023-05-14T09:10:50.569Z,20.56
2023-05-14T09:11:55.207Z,20.56
2023-05-14T09:12:57.034Z,20.61
2023-05-14T09:13:59.785Z,20.67
2023-05-14T09:15:01.489Z,20.59
2023-05-14T09:16:04.603Z,20.50
2023-05-14T09:17:06.395Z,20.39
2023-05-14T09:18:09.163Z,20.27
2023-05-14T09:19:11.993Z,20.14
2023-05-14T09:20:15.908Z,20.06
2023-05-14T09:21:17.998Z,20.05
2023-05-14T09:22:21.306Z,20.08
2023-05-14T09:23:25.856Z,20.02
2023-05-14T09:24:29.532Z,19.98
2023-05-14T09:25:32.079Z,19.94
2023-05-14T09:26:36.229Z,19.96
2023-05-14T09:27:39.560Z,20.02
2023-05-14T09:28:42.719Z,20.08
2023-05-14T09:29:44.404Z,20.11
2023-05-14T09:30:51.607Z,20.18
2023-05-14T09:31:55.635Z,20.23
2023-05-14T09:32:58.451Z,20.24
2023-05-14T09:34:00.756Z,20.16
2023-05-14T09:35:11.445Z,20.05
2023-05-14T09:36:14.148Z,19.91
2023-05-14T09:37:15.928Z,19.83
2023-05-14T09:38:18.706Z,19.76
2023-05-14T09:39:20.454Z,19.70
2023-05-14T09:40:25.110Z,19.68
2023-05-14T09:41:27.078Z,19.67
2023-05-14T09:42:29.739Z,19.65
2023-05-14T09:43:32.831Z,19.69
2023-05-14T09:44:36.296Z,19.72
2023-05-14T09:45:38.089Z,19.75
2023-05-14T09:46:40.788Z,19.83
2023-05-14T09:47:42.780Z,19.84
2023-05-14T09:48:46.639Z,19.84
2023-05-14T09:49:48.753Z,19.84
2023-05-14T09:50:52.155Z,19.85
2023-05-14T09:51:53.903Z,19.85
2023-05-14T09:52:56.632Z,19.86
2023-05-14T09:53:58.674Z,19.84
2023-05-14T09:55:02.096Z,19.83
2023-05-14T09:56:04.054Z,19.80
2023-05-14T09:57:07.054Z,19.76
2023-05-14T09:58:08.750Z,19.73
2023-05-14T09:59:12.813Z,19.70
2023-05-14T10:00:16.080Z,19.67
2023-05-14T10:01:20.120Z,19.68
2023-05-14T10:02:25.161Z,19.68
2023-05-14T10:03:28.927Z,19.69
2023-05-14T10:04:32.774Z,19.67
2023-05-14T10:05:36.653Z,19.61
2023-05-14T10:06:39.105Z,19.55
2023-05-14T10:07:44.076Z,19.48
2023-05-14T10:08:47.149Z,19.41
2023-05-14T10:09:50.207Z,19.36
2023-05-14T10:10:53.255Z,19.29
2023-05-14T10:11:58.479Z,19.22
2023-05-14T10:13:04.738Z,19.18
2023-05-14T10:14:09.189Z,19.16
2023-05-14T10:15:17.774Z,19.15
2023-05-14T10:16:25.380Z,19.15
2023-05-14T10:17:31.222Z,19.15
2023-05-14T10:18:39.795Z,19.15
2023-05-14T10:19:41.873Z,19.15
2023-05-14T10:20:45.518Z,19.17
2023-05-14T10:21:49.909Z,19.18
2023-05-14T10:22:52.739Z,19.21
2023-05-14T10:23:54.448Z,19.25
2023-05-14T10:24:57.341Z,19.28
2023-05-14T10:25:59.441Z,19.32
2023-05-14T10:27:02.236Z,19.33
2023-05-14T10:28:05.823Z,19.37
2023-05-14T10:29:08.853Z,19.40
2023-05-14T10:30:13.129Z,19.43
2023-05-14T10:31:15.846Z,19.44
2023-05-14T10:32:20.892Z,19.45
2023-05-14T10:33:23.567Z,19.43
2023-05-14T10:34:32.833Z,19.42
2023-05-14T10:35:54.686Z,19.41
2023-05-14T10:37:00.405Z,19.40
2023-05-14T10:38:03.107Z,19.38
2023-05-14T10:39:05.066Z,19.40
2023-05-14T10:40:10.113Z,19.40
2023-05-14T10:41:14.990Z,19.43
2023-05-14T10:42:18.909Z,19.45
2023-05-14T10:43:22.318Z,19.46
2023-05-14T10:44:24.128Z,19.50
2023-05-14T10:45:28.576Z,19.54
2023-05-14T10:46:30.878Z,19.56
2023-05-14T10:47:33.778Z,19.61
2023-05-14T10:48:37.058Z,19.65
2023-05-14T10:49:43.912Z,19.69
2023-05-14T10:50:49.089Z,19.72
2023-05-14T10:51:53.150Z,19.78
2023-05-14T10:52:57.124Z,19.83
2023-05-14T10:54:01.118Z,19.86
2023-05-14T10:55:07.707Z,19.89
2023-05-14T10:56:11.738Z,19.91
2023-05-14T10:57:14.126Z,19.95
2023-05-14T10:58:17.042Z,19.98
2023-05-14T10:59:18.812Z,20.01
2023-05-14T11:00:21.677Z,20.01
2023-05-14T11:01:24.804Z,19.99
2023-05-14T11:02:28.680Z,19.99
2023-05-14T11:03:31.163Z,19.99
2023-05-14T11:04:34.023Z,19.99
2023-05-14T11:05:37.551Z,20.00
2023-05-14T11:06:39.421Z,20.01
2023-05-14T11:07:43.362Z,20.03
2023-05-14T11:08:46.402Z,20.04
2023-05-14T11:09:49.371Z,20.03
2023-05-14T11:10:52.119Z,20.05
2023-05-14T11:11:56.840Z,20.00
2023-05-14T11:12:59.576Z,19.99
2023-05-14T11:14:01.332Z,19.99
2023-05-14T11:15:06.050Z,19.98
2023-05-14T11:16:21.826Z,19.97
2023-05-14T11:17:29.415Z,19.92
2023-05-14T11:18:33.568Z,19.91
2023-05-14T11:19:36.264Z,19.91
2023-05-14T11:20:39.135Z,19.91
2023-05-14T11:21:41.313Z,19.94
2023-05-14T11:22:44.544Z,19.96
2023-05-14T11:23:46.655Z,19.96
2023-05-14T11:24:49.603Z,19.95
2023-05-14T11:25:51.944Z,19.94
2023-05-14T11:26:55.699Z,19.96
2023-05-14T11:28:00.781Z,19.99
2023-05-14T11:29:02.602Z,20.01
2023-05-14T11:30:06.594Z,20.04
2023-05-14T11:31:08.274Z,20.06
2023-05-14T11:32:11.054Z,20.08
2023-05-14T11:33:15.384Z,20.09
2023-05-14T11:34:17.214Z,20.09
2023-05-14T11:35:19.958Z,20.12
2023-05-14T11:36:22.098Z,20.18
2023-05-14T11:37:24.821Z,20.26
2023-05-14T11:38:26.509Z,20.34
2023-05-14T11:39:29.193Z,20.43
2023-05-14T11:40:32.003Z,20.50
2023-05-14T11:41:33.778Z,20.61
2023-05-14T11:42:37.592Z,20.72
2023-05-14T11:43:39.405Z,20.83
2023-05-14T11:44:44.461Z,20.93
2023-05-14T11:45:50.075Z,21.05
2023-05-14T11:46:56.543Z,21.16
2023-05-14T11:47:59.296Z,21.25
2023-05-14T11:49:04.212Z,21.35
2023-05-14T11:50:09.382Z,21.45
2023-05-14T11:51:11.578Z,21.55
2023-05-14T11:52:15.724Z,21.65
2023-05-14T11:53:20.011Z,21.72
2023-05-14T11:54:21.718Z,21.79
2023-05-14T11:55:24.445Z,21.84
2023-05-14T11:56:26.143Z,21.91
2023-05-14T11:57:28.839Z,21.96
2023-05-14T11:58:32.648Z,22.04
2023-05-14T11:59:35.582Z,22.10
2023-05-14T12:00:38.659Z,22.14
2023-05-14T12:01:41.429Z,22.19
2023-05-14T12:02:44.220Z,22.23
2023-05-14T12:03:46.211Z,22.28
2023-05-14T12:04:53.121Z,22.34
2023-05-14T12:05:56.182Z,22.41
2023-05-14T12:06:59.990Z,22.49
2023-05-14T12:08:01.638Z,22.51
2023-05-14T12:09:06.258Z,22.56
2023-05-14T12:10:10.010Z,22.60
2023-05-14T12:11:11.712Z,22.65
2023-05-14T12:12:14.410Z,22.69
2023-05-14T12:13:17.436Z,22.73
2023-05-14T12:14:21.519Z,22.75
2023-05-14T12:15:23.576Z,22.75
2023-05-14T12:16:31.770Z,22.77
2023-05-14T12:17:34.632Z,22.79
2023-05-14T12:18:36.487Z,22.81
2023-05-14T12:19:41.761Z,22.87
2023-05-14T12:20:48.456Z,22.94
2023-05-14T12:21:52.873Z,22.99
2023-05-14T12:22:54.614Z,23.06
2023-05-14T12:23:59.822Z,23.11
2023-05-14T12:25:01.572Z,23.20
2023-05-14T12:26:06.115Z,23.26
2023-05-14T12:27:10.817Z,23.33
2023-05-14T12:28:15.870Z,23.40
2023-05-14T12:29:18.613Z,23.44
2023-05-14T12:30:22.135Z,23.50
2023-05-14T12:31:29.704Z,23.58
2023-05-14T12:32:32.673Z,23.63
2023-05-14T12:33:34.410Z,23.67
2023-05-14T12:34:37.970Z,23.72
2023-05-14T12:35:39.745Z,23.74
2023-05-14T12:36:43.880Z,23.79
2023-05-14T12:37:45.626Z,23.83
2023-05-14T12:38:48.354Z,23.85
2023-05-14T12:39:51.062Z,23.87
2023-05-14T12:40:52.766Z,23.90
2023-05-14T12:41:55.533Z,23.91
2023-05-14T12:42:57.315Z,23.93
2023-05-14T12:44:00.752Z,23.95
2023-05-14T12:45:05.513Z,24.00
2023-05-14T12:46:08.271Z,24.10
2023-05-14T12:47:11.015Z,24.15
2023-05-14T12:48:14.225Z,24.26
2023-05-14T12:49:16.075Z,24.36
2023-05-14T12:50:18.750Z,24.41
2023-05-14T12:51:21.617Z,24.43
2023-05-14T12:52:36.596Z,24.52
2023-05-14T12:53:41.791Z,24.61
2023-05-14T12:54:46.441Z,24.71
2023-05-14T12:55:50.780Z,24.82
2023-05-14T12:57:05.658Z,24.95
2023-05-14T12:58:07.504Z,25.05
2023-05-14T12:59:10.669Z,25.10
2023-05-14T13:00:14.499Z,25.15
2023-05-14T13:01:16.238Z,25.21
2023-05-14T13:02:18.914Z,25.27
2023-05-14T13:03:21.139Z,25.37
2023-05-14T13:04:23.891Z,25.45
2023-05-14T13:05:25.900Z,25.49
2023-05-14T13:06:28.855Z,25.56
2023-05-14T13:07:31.997Z,25.54
2023-05-14T13:08:34.732Z,25.58
2023-05-14T13:09:37.437Z,25.62
2023-05-14T13:10:40.998Z,25.65
2023-05-14T13:11:43.716Z,25.66
2023-05-14T13:12:45.500Z,25.72
2023-05-14T13:13:48.185Z,25.81
2023-05-14T13:14:50.008Z,25.90
2023-05-14T13:15:54.069Z,25.94
2023-05-14T13:16:56.794Z,25.96
2023-05-14T13:17:58.622Z,25.99
2023-05-14T13:19:01.387Z,26.00
2023-05-14T13:20:04.739Z,26.02
2023-05-14T13:21:07.571Z,26.07
2023-05-14T13:22:09.226Z,26.08
2023-05-14T13:23:13.630Z,26.10
2023-05-14T13:24:15.396Z,26.16
2023-05-14T13:25:18.066Z,26.21
2023-05-14T13:26:19.973Z,26.20
2023-05-14T13:27:22.737Z,26.20
2023-05-14T13:28:24.434Z,26.21
2023-05-14T13:29:29.292Z,26.27
2023-05-14T13:30:32.310Z,26.34
2023-05-14T13:31:36.976Z,26.36
2023-05-14T13:32:40.807Z,26.31
2023-05-14T13:33:45.896Z,26.24
2023-05-14T13:34:47.600Z,26.17